sensor_id;sensor_type;location;lat;lon;timestamp;P1;durP1;ratioP1;P2;durP2;ratioP2
12635;SDS011;6383;50.830;7.210;2023-09-19T00:00:43;9.73;;;2.65;;
12635;SDS011;6383;50.830;7.210;2023-09-19T00:03:13;6.82;;;2.35;;
12635;SDS011;6383;50.830;7.210;2023-09-19T00:05:40;6.10;;;2.65;;
12635;SDS011;6383;50.830;7.210;2023-09-19T00:08:12;5.80;;;2.42;;
12635;SDS011;6383;50.830;7.210;2023-09-19T00:10:43;7.90;;;1.90;;
12635;SDS011;6383;50.830;7.210;2023-09-19T00:13:11;5.63;;;1.98;;
12635;SDS011;6383;50.830;7.210;2023-09-19T00:15:42;6.07;;;2.03;;
12635;SDS011;6383;50.830;7.210;2023-09-19T00:18:15;3.63;;;1.90;;
12635;SDS011;6383;50.830;7.210;2023-09-19T00:20:46;9.73;;;2.28;;
12635;SDS011;6383;50.830;7.210;2023-09-19T00:23:17;9.73;;;2.08;;
12635;SDS011;6383;50.830;7.210;2023-09-19T00:25:48;6.18;;;1.92;;
12635;SDS011;6383;50.830;7.210;2023-09-19T00:28:17;3.60;;;1.95;;
12635;SDS011;6383;50.830;7.210;2023-09-19T00:30:47;4.75;;;2.40;;
12635;SDS011;6383;50.830;7.210;2023-09-19T00:33:17;5.28;;;1.95;;
12635;SDS011;6383;50.830;7.210;2023-09-19T00:35:47;7.60;;;2.22;;
12635;SDS011;6383;50.830;7.210;2023-09-19T00:38:15;5.00;;;2.30;;
12635;SDS011;6383;50.830;7.210;2023-09-19T00:40:49;5.53;;;1.87;;
12635;SDS011;6383;50.830;7.210;2023-09-19T00:43:17;7.38;;;2.22;;
12635;SDS011;6383;50.830;7.210;2023-09-19T00:45:46;5.90;;;2.28;;
12635;SDS011;6383;50.830;7.210;2023-09-19T00:48:17;8.00;;;2.33;;
12635;SDS011;6383;50.830;7.210;2023-09-19T00:50:47;6.53;;;2.05;;
12635;SDS011;6383;50.830;7.210;2023-09-19T00:53:18;5.75;;;2.00;;
12635;SDS011;6383;50.830;7.210;2023-09-19T00:55:52;7.00;;;2.22;;
12635;SDS011;6383;50.830;7.210;2023-09-19T00:58:21;5.85;;;2.10;;
12635;SDS011;6383;50.830;7.210;2023-09-19T01:00:50;5.72;;;1.85;;
12635;SDS011;6383;50.830;7.210;2023-09-19T01:03:20;8.20;;;2.20;;
12635;SDS011;6383;50.830;7.210;2023-09-19T01:05:49;9.20;;;2.30;;
12635;SDS011;6383;50.830;7.210;2023-09-19T01:08:18;5.40;;;1.92;;
12635;SDS011;6383;50.830;7.210;2023-09-19T01:10:50;8.43;;;2.00;;
12635;SDS011;6383;50.830;7.210;2023-09-19T01:13:26;7.82;;;2.53;;
12635;SDS011;6383;50.830;7.210;2023-09-19T01:16:03;9.98;;;2.47;;
12635;SDS011;6383;50.830;7.210;2023-09-19T01:18:40;8.18;;;2.28;;
12635;SDS011;6383;50.830;7.210;2023-09-19T01:21:15;5.45;;;2.05;;
12635;SDS011;6383;50.830;7.210;2023-09-19T01:24:03;8.10;;;2.42;;
12635;SDS011;6383;50.830;7.210;2023-09-19T01:26:49;6.15;;;2.03;;
12635;SDS011;6383;50.830;7.210;2023-09-19T01:29:37;6.25;;;2.30;;
12635;SDS011;6383;50.830;7.210;2023-09-19T01:32:09;12.52;;;2.40;;
12635;SDS011;6383;50.830;7.210;2023-09-19T01:34:45;9.18;;;2.22;;
12635;SDS011;6383;50.830;7.210;2023-09-19T01:37:16;5.43;;;1.95;;
12635;SDS011;6383;50.830;7.210;2023-09-19T01:39:48;10.75;;;2.47;;
12635;SDS011;6383;50.830;7.210;2023-09-19T01:42:21;8.93;;;2.53;;
12635;SDS011;6383;50.830;7.210;2023-09-19T01:44:59;7.93;;;2.17;;
12635;SDS011;6383;50.830;7.210;2023-09-19T01:47:38;7.15;;;2.10;;
12635;SDS011;6383;50.830;7.210;2023-09-19T01:50:15;8.07;;;2.20;;
12635;SDS011;6383;50.830;7.210;2023-09-19T01:52:51;10.52;;;2.63;;
12635;SDS011;6383;50.830;7.210;2023-09-19T01:55:26;9.98;;;2.30;;
12635;SDS011;6383;50.830;7.210;2023-09-19T01:57:58;9.27;;;2.55;;
12635;SDS011;6383;50.830;7.210;2023-09-19T02:00:36;8.45;;;2.40;;
12635;SDS011;6383;50.830;7.210;2023-09-19T02:03:10;8.02;;;2.28;;
12635;SDS011;6383;50.830;7.210;2023-09-19T02:05:41;8.23;;;2.10;;
12635;SDS011;6383;50.830;7.210;2023-09-19T02:08:09;11.20;;;2.28;;
12635;SDS011;6383;50.830;7.210;2023-09-19T02:10:38;9.63;;;2.42;;
12635;SDS011;6383;50.830;7.210;2023-09-19T02:13:06;7.93;;;2.05;;
12635;SDS011;6383;50.830;7.210;2023-09-19T02:15:33;5.97;;;1.90;;
12635;SDS011;6383;50.830;7.210;2023-09-19T02:18:04;5.88;;;1.90;;
12635;SDS011;6383;50.830;7.210;2023-09-19T02:20:34;12.93;;;2.42;;
12635;SDS011;6383;50.830;7.210;2023-09-19T02:23:03;7.83;;;2.60;;
12635;SDS011;6383;50.830;7.210;2023-09-19T02:25:32;11.05;;;3.13;;
12635;SDS011;6383;50.830;7.210;2023-09-19T02:28:00;8.80;;;2.80;;
12635;SDS011;6383;50.830;7.210;2023-09-19T02:30:28;13.02;;;3.53;;
12635;SDS011;6383;50.830;7.210;2023-09-19T02:32:57;8.52;;;2.88;;
12635;SDS011;6383;50.830;7.210;2023-09-19T02:35:27;10.27;;;3.08;;
12635;SDS011;6383;50.830;7.210;2023-09-19T02:38:00;11.35;;;3.08;;
12635;SDS011;6383;50.830;7.210;2023-09-19T02:40:33;11.63;;;3.33;;
12635;SDS011;6383;50.830;7.210;2023-09-19T02:43:03;10.25;;;2.72;;
12635;SDS011;6383;50.830;7.210;2023-09-19T02:45:33;10.75;;;3.08;;
12635;SDS011;6383;50.830;7.210;2023-09-19T02:48:02;11.68;;;2.88;;
12635;SDS011;6383;50.830;7.210;2023-09-19T02:50:31;14.40;;;3.95;;
12635;SDS011;6383;50.830;7.210;2023-09-19T02:53:03;13.38;;;3.60;;
12635;SDS011;6383;50.830;7.210;2023-09-19T02:55:31;11.45;;;3.20;;
12635;SDS011;6383;50.830;7.210;2023-09-19T02:57:59;12.90;;;3.70;;
12635;SDS011;6383;50.830;7.210;2023-09-19T03:00:28;14.45;;;3.72;;
12635;SDS011;6383;50.830;7.210;2023-09-19T03:02:55;12.35;;;3.70;;
12635;SDS011;6383;50.830;7.210;2023-09-19T03:05:24;15.73;;;3.63;;
12635;SDS011;6383;50.830;7.210;2023-09-19T03:07:53;17.73;;;4.28;;
12635;SDS011;6383;50.830;7.210;2023-09-19T03:10:22;14.67;;;3.67;;
12635;SDS011;6383;50.830;7.210;2023-09-19T03:12:51;12.90;;;3.25;;
12635;SDS011;6383;50.830;7.210;2023-09-19T03:15:20;14.70;;;3.60;;
12635;SDS011;6383;50.830;7.210;2023-09-19T03:17:48;14.35;;;3.55;;
12635;SDS011;6383;50.830;7.210;2023-09-19T03:20:19;14.82;;;3.80;;
12635;SDS011;6383;50.830;7.210;2023-09-19T03:22:48;11.15;;;3.45;;
12635;SDS011;6383;50.830;7.210;2023-09-19T03:25:16;10.67;;;3.50;;
12635;SDS011;6383;50.830;7.210;2023-09-19T03:27:46;14.95;;;3.55;;
12635;SDS011;6383;50.830;7.210;2023-09-19T03:30:15;14.38;;;3.45;;
12635;SDS011;6383;50.830;7.210;2023-09-19T03:32:44;19.52;;;4.13;;
12635;SDS011;6383;50.830;7.210;2023-09-19T03:35:14;14.88;;;3.88;;
12635;SDS011;6383;50.830;7.210;2023-09-19T03:37:43;15.13;;;3.80;;
12635;SDS011;6383;50.830;7.210;2023-09-19T03:40:12;15.00;;;3.77;;
12635;SDS011;6383;50.830;7.210;2023-09-19T03:42:42;17.63;;;3.78;;
12635;SDS011;6383;50.830;7.210;2023-09-19T03:45:10;17.98;;;3.80;;
12635;SDS011;6383;50.830;7.210;2023-09-19T03:47:40;16.80;;;3.45;;
12635;SDS011;6383;50.830;7.210;2023-09-19T03:50:08;13.85;;;4.15;;
12635;SDS011;6383;50.830;7.210;2023-09-19T03:52:38;16.53;;;3.87;;
12635;SDS011;6383;50.830;7.210;2023-09-19T03:55:10;15.93;;;3.65;;
12635;SDS011;6383;50.830;7.210;2023-09-19T03:57:38;11.97;;;2.97;;
12635;SDS011;6383;50.830;7.210;2023-09-19T04:00:07;13.38;;;3.17;;
12635;SDS011;6383;50.830;7.210;2023-09-19T04:02:40;13.63;;;3.58;;
12635;SDS011;6383;50.830;7.210;2023-09-19T04:05:08;17.52;;;3.85;;
12635;SDS011;6383;50.830;7.210;2023-09-19T04:07:38;11.75;;;3.33;;
12635;SDS011;6383;50.830;7.210;2023-09-19T04:10:07;14.18;;;3.50;;
12635;SDS011;6383;50.830;7.210;2023-09-19T04:12:39;14.95;;;3.53;;
12635;SDS011;6383;50.830;7.210;2023-09-19T04:15:06;13.10;;;3.92;;
12635;SDS011;6383;50.830;7.210;2023-09-19T04:17:42;15.07;;;4.05;;
12635;SDS011;6383;50.830;7.210;2023-09-19T04:20:11;16.05;;;3.70;;
12635;SDS011;6383;50.830;7.210;2023-09-19T04:22:40;13.73;;;3.42;;
12635;SDS011;6383;50.830;7.210;2023-09-19T04:25:10;12.27;;;3.38;;
12635;SDS011;6383;50.830;7.210;2023-09-19T04:27:37;11.83;;;3.27;;
12635;SDS011;6383;50.830;7.210;2023-09-19T04:30:06;14.45;;;3.33;;
12635;SDS011;6383;50.830;7.210;2023-09-19T04:32:37;16.20;;;4.05;;
12635;SDS011;6383;50.830;7.210;2023-09-19T04:35:09;14.23;;;3.70;;
12635;SDS011;6383;50.830;7.210;2023-09-19T04:37:37;20.75;;;4.07;;
12635;SDS011;6383;50.830;7.210;2023-09-19T04:40:08;14.10;;;3.47;;
12635;SDS011;6383;50.830;7.210;2023-09-19T04:42:43;14.40;;;3.67;;
12635;SDS011;6383;50.830;7.210;2023-09-19T04:45:13;11.63;;;3.80;;
12635;SDS011;6383;50.830;7.210;2023-09-19T04:47:42;13.80;;;3.55;;
12635;SDS011;6383;50.830;7.210;2023-09-19T04:50:12;11.88;;;3.53;;
12635;SDS011;6383;50.830;7.210;2023-09-19T04:52:40;13.90;;;3.55;;
12635;SDS011;6383;50.830;7.210;2023-09-19T04:55:11;18.55;;;3.50;;
12635;SDS011;6383;50.830;7.210;2023-09-19T04:57:42;12.85;;;3.15;;
12635;SDS011;6383;50.830;7.210;2023-09-19T05:00:13;12.60;;;3.70;;
12635;SDS011;6383;50.830;7.210;2023-09-19T05:02:44;14.43;;;3.30;;
12635;SDS011;6383;50.830;7.210;2023-09-19T05:05:14;14.57;;;3.72;;
12635;SDS011;6383;50.830;7.210;2023-09-19T05:07:43;14.07;;;3.22;;
12635;SDS011;6383;50.830;7.210;2023-09-19T05:10:12;10.52;;;3.20;;
12635;SDS011;6383;50.830;7.210;2023-09-19T05:12:41;12.17;;;3.30;;
12635;SDS011;6383;50.830;7.210;2023-09-19T05:15:12;11.43;;;3.58;;
12635;SDS011;6383;50.830;7.210;2023-09-19T05:17:47;15.55;;;3.50;;
12635;SDS011;6383;50.830;7.210;2023-09-19T05:20:17;15.07;;;4.20;;
12635;SDS011;6383;50.830;7.210;2023-09-19T05:22:57;11.63;;;3.30;;
12635;SDS011;6383;50.830;7.210;2023-09-19T05:25:27;13.00;;;3.73;;
12635;SDS011;6383;50.830;7.210;2023-09-19T05:27:58;15.43;;;3.40;;
12635;SDS011;6383;50.830;7.210;2023-09-19T05:30:28;15.50;;;3.70;;
12635;SDS011;6383;50.830;7.210;2023-09-19T05:32:55;12.33;;;3.60;;
12635;SDS011;6383;50.830;7.210;2023-09-19T05:35:24;11.68;;;3.67;;
12635;SDS011;6383;50.830;7.210;2023-09-19T05:37:54;12.73;;;3.25;;
12635;SDS011;6383;50.830;7.210;2023-09-19T05:40:23;12.25;;;3.30;;
12635;SDS011;6383;50.830;7.210;2023-09-19T05:42:52;12.50;;;3.15;;
12635;SDS011;6383;50.830;7.210;2023-09-19T05:45:21;12.85;;;3.08;;
12635;SDS011;6383;50.830;7.210;2023-09-19T05:47:51;14.80;;;3.58;;
12635;SDS011;6383;50.830;7.210;2023-09-19T05:50:24;12.30;;;3.13;;
12635;SDS011;6383;50.830;7.210;2023-09-19T05:52:53;14.23;;;3.28;;
12635;SDS011;6383;50.830;7.210;2023-09-19T05:55:23;12.15;;;3.65;;
12635;SDS011;6383;50.830;7.210;2023-09-19T05:57:51;14.20;;;3.30;;
12635;SDS011;6383;50.830;7.210;2023-09-19T06:00:21;10.03;;;3.33;;
12635;SDS011;6383;50.830;7.210;2023-09-19T06:02:50;16.27;;;3.63;;
12635;SDS011;6383;50.830;7.210;2023-09-19T06:05:19;11.70;;;3.40;;
12635;SDS011;6383;50.830;7.210;2023-09-19T06:07:50;14.55;;;3.35;;
12635;SDS011;6383;50.830;7.210;2023-09-19T06:10:19;11.60;;;3.53;;
12635;SDS011;6383;50.830;7.210;2023-09-19T06:12:49;13.20;;;3.65;;
12635;SDS011;6383;50.830;7.210;2023-09-19T06:15:18;10.00;;;3.30;;
12635;SDS011;6383;50.830;7.210;2023-09-19T06:17:46;17.05;;;3.78;;
12635;SDS011;6383;50.830;7.210;2023-09-19T06:20:17;13.38;;;3.25;;
12635;SDS011;6383;50.830;7.210;2023-09-19T06:22:47;12.27;;;3.20;;
12635;SDS011;6383;50.830;7.210;2023-09-19T06:25:16;16.10;;;3.67;;
12635;SDS011;6383;50.830;7.210;2023-09-19T06:27:46;14.40;;;3.40;;
12635;SDS011;6383;50.830;7.210;2023-09-19T06:30:16;16.05;;;3.90;;
12635;SDS011;6383;50.830;7.210;2023-09-19T06:32:45;13.93;;;3.27;;
12635;SDS011;6383;50.830;7.210;2023-09-19T06:35:15;17.00;;;3.92;;
12635;SDS011;6383;50.830;7.210;2023-09-19T06:37:44;13.52;;;3.58;;
12635;SDS011;6383;50.830;7.210;2023-09-19T06:40:14;16.88;;;4.25;;
12635;SDS011;6383;50.830;7.210;2023-09-19T06:42:45;14.77;;;3.95;;
12635;SDS011;6383;50.830;7.210;2023-09-19T06:45:16;16.08;;;3.50;;
12635;SDS011;6383;50.830;7.210;2023-09-19T06:47:46;9.60;;;3.17;;
12635;SDS011;6383;50.830;7.210;2023-09-19T06:50:17;11.73;;;3.45;;
12635;SDS011;6383;50.830;7.210;2023-09-19T06:52:48;13.13;;;3.45;;
12635;SDS011;6383;50.830;7.210;2023-09-19T06:55:21;11.40;;;3.03;;
12635;SDS011;6383;50.830;7.210;2023-09-19T06:57:52;9.77;;;3.30;;
12635;SDS011;6383;50.830;7.210;2023-09-19T07:00:20;14.65;;;3.63;;
12635;SDS011;6383;50.830;7.210;2023-09-19T07:02:57;16.98;;;3.85;;
12635;SDS011;6383;50.830;7.210;2023-09-19T07:05:27;12.00;;;3.53;;
12635;SDS011;6383;50.830;7.210;2023-09-19T07:07:54;15.15;;;3.70;;
12635;SDS011;6383;50.830;7.210;2023-09-19T07:10:25;13.80;;;3.83;;
12635;SDS011;6383;50.830;7.210;2023-09-19T07:12:55;14.55;;;4.03;;
12635;SDS011;6383;50.830;7.210;2023-09-19T07:15:24;16.15;;;3.90;;
12635;SDS011;6383;50.830;7.210;2023-09-19T07:17:52;17.02;;;4.15;;
12635;SDS011;6383;50.830;7.210;2023-09-19T07:20:22;13.73;;;3.50;;
12635;SDS011;6383;50.830;7.210;2023-09-19T07:22:53;11.40;;;3.35;;
12635;SDS011;6383;50.830;7.210;2023-09-19T07:25:21;12.27;;;3.97;;
12635;SDS011;6383;50.830;7.210;2023-09-19T07:27:50;14.40;;;3.78;;
12635;SDS011;6383;50.830;7.210;2023-09-19T07:30:19;10.50;;;3.30;;
12635;SDS011;6383;50.830;7.210;2023-09-19T07:32:47;15.38;;;3.65;;
12635;SDS011;6383;50.830;7.210;2023-09-19T07:35:14;13.30;;;3.80;;
12635;SDS011;6383;50.830;7.210;2023-09-19T07:37:47;14.07;;;3.53;;
12635;SDS011;6383;50.830;7.210;2023-09-19T07:40:17;13.30;;;3.67;;
12635;SDS011;6383;50.830;7.210;2023-09-19T07:42:46;14.05;;;3.55;;
12635;SDS011;6383;50.830;7.210;2023-09-19T07:45:16;12.65;;;3.72;;
12635;SDS011;6383;50.830;7.210;2023-09-19T07:47:44;15.43;;;4.03;;
12635;SDS011;6383;50.830;7.210;2023-09-19T07:50:14;16.20;;;3.90;;
12635;SDS011;6383;50.830;7.210;2023-09-19T07:52:42;11.30;;;3.15;;
12635;SDS011;6383;50.830;7.210;2023-09-19T07:55:11;12.95;;;3.70;;
12635;SDS011;6383;50.830;7.210;2023-09-19T07:57:43;17.67;;;3.97;;
12635;SDS011;6383;50.830;7.210;2023-09-19T08:00:13;14.85;;;4.22;;
12635;SDS011;6383;50.830;7.210;2023-09-19T08:02:44;14.00;;;3.97;;
12635;SDS011;6383;50.830;7.210;2023-09-19T08:05:13;15.60;;;3.92;;
12635;SDS011;6383;50.830;7.210;2023-09-19T08:07:44;14.13;;;4.13;;
12635;SDS011;6383;50.830;7.210;2023-09-19T08:10:16;12.88;;;3.42;;
12635;SDS011;6383;50.830;7.210;2023-09-19T08:12:50;10.55;;;3.55;;
12635;SDS011;6383;50.830;7.210;2023-09-19T08:15:25;13.43;;;3.75;;
12635;SDS011;6383;50.830;7.210;2023-09-19T08:17:56;13.02;;;3.63;;
12635;SDS011;6383;50.830;7.210;2023-09-19T08:20:25;13.70;;;3.65;;
12635;SDS011;6383;50.830;7.210;2023-09-19T08:22:54;14.13;;;3.58;;
12635;SDS011;6383;50.830;7.210;2023-09-19T08:25:23;12.45;;;3.78;;
12635;SDS011;6383;50.830;7.210;2023-09-19T08:27:54;11.88;;;3.85;;
12635;SDS011;6383;50.830;7.210;2023-09-19T08:30:25;14.55;;;3.90;;
12635;SDS011;6383;50.830;7.210;2023-09-19T08:32:57;14.70;;;3.90;;
12635;SDS011;6383;50.830;7.210;2023-09-19T08:35:29;10.45;;;3.20;;
12635;SDS011;6383;50.830;7.210;2023-09-19T08:37:56;14.02;;;3.75;;
12635;SDS011;6383;50.830;7.210;2023-09-19T08:40:23;14.30;;;4.00;;
12635;SDS011;6383;50.830;7.210;2023-09-19T08:42:57;13.38;;;3.58;;
12635;SDS011;6383;50.830;7.210;2023-09-19T08:45:24;11.25;;;3.67;;
12635;SDS011;6383;50.830;7.210;2023-09-19T08:47:55;15.05;;;4.50;;
12635;SDS011;6383;50.830;7.210;2023-09-19T08:50:31;10.68;;;3.80;;
12635;SDS011;6383;50.830;7.210;2023-09-19T08:53:01;10.80;;;3.53;;
12635;SDS011;6383;50.830;7.210;2023-09-19T08:55:39;14.73;;;4.13;;
12635;SDS011;6383;50.830;7.210;2023-09-19T08:58:10;15.57;;;4.28;;
12635;SDS011;6383;50.830;7.210;2023-09-19T09:00:41;10.47;;;3.53;;
12635;SDS011;6383;50.830;7.210;2023-09-19T09:03:15;13.52;;;3.67;;
12635;SDS011;6383;50.830;7.210;2023-09-19T09:05:46;12.02;;;3.88;;
12635;SDS011;6383;50.830;7.210;2023-09-19T09:08:17;11.50;;;3.58;;
12635;SDS011;6383;50.830;7.210;2023-09-19T09:10:47;10.20;;;3.03;;
12635;SDS011;6383;50.830;7.210;2023-09-19T09:13:17;13.50;;;3.50;;
12635;SDS011;6383;50.830;7.210;2023-09-19T09:15:47;14.25;;;3.50;;
12635;SDS011;6383;50.830;7.210;2023-09-19T09:18:17;8.73;;;3.00;;
12635;SDS011;6383;50.830;7.210;2023-09-19T09:20:47;8.90;;;3.05;;
12635;SDS011;6383;50.830;7.210;2023-09-19T09:23:20;10.20;;;3.15;;
12635;SDS011;6383;50.830;7.210;2023-09-19T09:25:50;11.98;;;3.10;;
12635;SDS011;6383;50.830;7.210;2023-09-19T09:28:24;12.05;;;3.55;;
12635;SDS011;6383;50.830;7.210;2023-09-19T09:30:55;10.20;;;3.10;;
12635;SDS011;6383;50.830;7.210;2023-09-19T09:33:27;14.60;;;3.60;;
12635;SDS011;6383;50.830;7.210;2023-09-19T09:35:56;10.13;;;3.30;;
12635;SDS011;6383;50.830;7.210;2023-09-19T09:38:27;10.10;;;2.83;;
12635;SDS011;6383;50.830;7.210;2023-09-19T09:40:59;9.23;;;2.77;;
12635;SDS011;6383;50.830;7.210;2023-09-19T09:43:34;10.95;;;3.65;;
12635;SDS011;6383;50.830;7.210;2023-09-19T09:46:11;10.18;;;2.80;;
12635;SDS011;6383;50.830;7.210;2023-09-19T09:49:00;10.70;;;3.30;;
12635;SDS011;6383;50.830;7.210;2023-09-19T09:51:48;9.43;;;2.80;;
12635;SDS011;6383;50.830;7.210;2023-09-19T09:54:27;12.27;;;3.20;;
12635;SDS011;6383;50.830;7.210;2023-09-19T09:57:04;9.73;;;3.03;;
12635;SDS011;6383;50.830;7.210;2023-09-19T09:59:44;8.32;;;3.03;;
12635;SDS011;6383;50.830;7.210;2023-09-19T10:02:25;11.43;;;3.28;;
12635;SDS011;6383;50.830;7.210;2023-09-19T10:04:57;9.38;;;3.35;;
12635;SDS011;6383;50.830;7.210;2023-09-19T10:07:40;12.23;;;3.90;;
12635;SDS011;6383;50.830;7.210;2023-09-19T10:10:14;10.55;;;3.30;;
12635;SDS011;6383;50.830;7.210;2023-09-19T10:12:49;9.37;;;3.00;;
12635;SDS011;6383;50.830;7.210;2023-09-19T10:15:23;8.63;;;2.63;;
12635;SDS011;6383;50.830;7.210;2023-09-19T10:17:57;8.68;;;3.03;;
12635;SDS011;6383;50.830;7.210;2023-09-19T10:20:31;9.98;;;2.85;;
12635;SDS011;6383;50.830;7.210;2023-09-19T10:23:04;6.80;;;2.85;;
12635;SDS011;6383;50.830;7.210;2023-09-19T10:25:40;8.85;;;2.83;;
12635;SDS011;6383;50.830;7.210;2023-09-19T10:28:14;8.73;;;2.70;;
12635;SDS011;6383;50.830;7.210;2023-09-19T10:30:49;9.15;;;2.63;;
12635;SDS011;6383;50.830;7.210;2023-09-19T10:33:20;12.15;;;3.20;;
12635;SDS011;6383;50.830;7.210;2023-09-19T10:35:51;8.57;;;2.42;;
12635;SDS011;6383;50.830;7.210;2023-09-19T10:38:23;10.23;;;2.95;;
12635;SDS011;6383;50.830;7.210;2023-09-19T10:40:53;10.43;;;3.22;;
12635;SDS011;6383;50.830;7.210;2023-09-19T10:43:25;7.57;;;2.50;;
12635;SDS011;6383;50.830;7.210;2023-09-19T10:46:00;6.43;;;2.60;;
12635;SDS011;6383;50.830;7.210;2023-09-19T10:48:29;8.85;;;2.72;;
12635;SDS011;6383;50.830;7.210;2023-09-19T10:51:06;11.13;;;2.97;;
12635;SDS011;6383;50.830;7.210;2023-09-19T10:53:41;6.00;;;2.53;;
12635;SDS011;6383;50.830;7.210;2023-09-19T10:56:18;7.88;;;2.38;;
12635;SDS011;6383;50.830;7.210;2023-09-19T10:58:52;9.73;;;2.65;;
12635;SDS011;6383;50.830;7.210;2023-09-19T11:01:41;6.57;;;2.50;;
12635;SDS011;6383;50.830;7.210;2023-09-19T11:04:24;6.93;;;2.92;;
12635;SDS011;6383;50.830;7.210;2023-09-19T11:07:01;10.52;;;3.10;;
12635;SDS011;6383;50.830;7.210;2023-09-19T11:09:44;7.63;;;2.85;;
12635;SDS011;6383;50.830;7.210;2023-09-19T11:21:38;6.50;;;2.67;;
12635;SDS011;6383;50.830;7.210;2023-09-19T11:27:10;6.70;;;2.42;;
12635;SDS011;6383;50.830;7.210;2023-09-19T11:29:49;6.22;;;2.50;;
12635;SDS011;6383;50.830;7.210;2023-09-19T11:33:15;6.43;;;2.42;;
12635;SDS011;6383;50.830;7.210;2023-09-19T11:36:01;8.77;;;2.60;;
12635;SDS011;6383;50.830;7.210;2023-09-19T11:41:39;6.05;;;2.25;;
12635;SDS011;6383;50.830;7.210;2023-09-19T11:47:00;9.82;;;3.25;;
12635;SDS011;6383;50.830;7.210;2023-09-19T11:49:31;8.73;;;2.70;;
12635;SDS011;6383;50.830;7.210;2023-09-19T11:52:02;9.73;;;3.00;;
12635;SDS011;6383;50.830;7.210;2023-09-19T11:54:33;8.05;;;2.65;;
12635;SDS011;6383;50.830;7.210;2023-09-19T11:57:08;6.75;;;2.58;;
12635;SDS011;6383;50.830;7.210;2023-09-19T11:59:38;10.20;;;3.00;;
12635;SDS011;6383;50.830;7.210;2023-09-19T12:02:07;8.65;;;2.67;;
12635;SDS011;6383;50.830;7.210;2023-09-19T12:04:45;6.70;;;2.70;;
12635;SDS011;6383;50.830;7.210;2023-09-19T12:07:19;6.30;;;2.42;;
12635;SDS011;6383;50.830;7.210;2023-09-19T12:09:48;9.38;;;2.78;;
12635;SDS011;6383;50.830;7.210;2023-09-19T12:12:31;7.25;;;2.33;;
12635;SDS011;6383;50.830;7.210;2023-09-19T12:15:00;5.80;;;2.40;;
12635;SDS011;6383;50.830;7.210;2023-09-19T12:17:34;5.88;;;3.10;;
12635;SDS011;6383;50.830;7.210;2023-09-19T12:20:13;6.10;;;2.47;;
12635;SDS011;6383;50.830;7.210;2023-09-19T12:22:45;6.30;;;2.70;;
12635;SDS011;6383;50.830;7.210;2023-09-19T12:25:15;6.93;;;2.65;;
12635;SDS011;6383;50.830;7.210;2023-09-19T12:27:49;6.50;;;2.30;;
12635;SDS011;6383;50.830;7.210;2023-09-19T12:30:20;8.18;;;2.55;;
12635;SDS011;6383;50.830;7.210;2023-09-19T12:33:00;6.93;;;2.85;;
12635;SDS011;6383;50.830;7.210;2023-09-19T12:35:30;7.63;;;2.70;;
12635;SDS011;6383;50.830;7.210;2023-09-19T12:38:02;5.63;;;2.42;;
12635;SDS011;6383;50.830;7.210;2023-09-19T12:40:33;5.32;;;2.30;;
12635;SDS011;6383;50.830;7.210;2023-09-19T12:43:05;8.38;;;3.13;;
12635;SDS011;6383;50.830;7.210;2023-09-19T12:45:42;6.28;;;2.42;;
12635;SDS011;6383;50.830;7.210;2023-09-19T12:48:19;6.63;;;2.42;;
12635;SDS011;6383;50.830;7.210;2023-09-19T12:51:00;3.83;;;2.03;;
12635;SDS011;6383;50.830;7.210;2023-09-19T12:53:32;9.52;;;2.65;;
12635;SDS011;6383;50.830;7.210;2023-09-19T12:56:05;6.95;;;2.53;;
12635;SDS011;6383;50.830;7.210;2023-09-19T12:58:36;7.03;;;2.25;;
12635;SDS011;6383;50.830;7.210;2023-09-19T13:01:18;7.13;;;2.35;;
12635;SDS011;6383;50.830;7.210;2023-09-19T13:03:45;5.35;;;2.05;;
12635;SDS011;6383;50.830;7.210;2023-09-19T13:06:15;8.55;;;2.60;;
12635;SDS011;6383;50.830;7.210;2023-09-19T13:08:45;6.70;;;2.38;;
12635;SDS011;6383;50.830;7.210;2023-09-19T13:11:21;7.78;;;2.50;;
12635;SDS011;6383;50.830;7.210;2023-09-19T13:14:18;8.38;;;2.47;;
12635;SDS011;6383;50.830;7.210;2023-09-19T13:16:54;6.72;;;2.20;;
12635;SDS011;6383;50.830;7.210;2023-09-19T13:19:40;5.85;;;1.90;;
12635;SDS011;6383;50.830;7.210;2023-09-19T13:25:09;4.82;;;1.88;;
12635;SDS011;6383;50.830;7.210;2023-09-19T13:27:41;8.40;;;2.03;;
12635;SDS011;6383;50.830;7.210;2023-09-19T13:30:15;5.05;;;2.00;;
12635;SDS011;6383;50.830;7.210;2023-09-19T13:32:43;7.85;;;2.28;;
12635;SDS011;6383;50.830;7.210;2023-09-19T13:35:13;5.10;;;1.90;;
12635;SDS011;6383;50.830;7.210;2023-09-19T13:37:43;4.63;;;1.90;;
12635;SDS011;6383;50.830;7.210;2023-09-19T13:40:15;4.43;;;1.50;;
12635;SDS011;6383;50.830;7.210;2023-09-19T13:42:44;5.82;;;1.80;;
12635;SDS011;6383;50.830;7.210;2023-09-19T13:45:13;3.35;;;1.60;;
12635;SDS011;6383;50.830;7.210;2023-09-19T13:47:46;6.22;;;1.77;;
12635;SDS011;6383;50.830;7.210;2023-09-19T13:50:13;3.07;;;1.57;;
12635;SDS011;6383;50.830;7.210;2023-09-19T13:52:43;4.55;;;1.75;;
12635;SDS011;6383;50.830;7.210;2023-09-19T13:55:10;4.63;;;1.65;;
12635;SDS011;6383;50.830;7.210;2023-09-19T13:57:47;4.50;;;1.40;;
12635;SDS011;6383;50.830;7.210;2023-09-19T14:00:21;4.72;;;1.65;;
12635;SDS011;6383;50.830;7.210;2023-09-19T14:02:54;4.55;;;1.70;;
12635;SDS011;6383;50.830;7.210;2023-09-19T14:05:23;5.82;;;1.50;;
12635;SDS011;6383;50.830;7.210;2023-09-19T14:07:55;4.47;;;1.40;;
12635;SDS011;6383;50.830;7.210;2023-09-19T14:10:24;5.68;;;1.77;;
12635;SDS011;6383;50.830;7.210;2023-09-19T14:12:55;5.90;;;1.73;;
12635;SDS011;6383;50.830;7.210;2023-09-19T14:15:25;3.97;;;1.38;;
12635;SDS011;6383;50.830;7.210;2023-09-19T14:17:58;4.38;;;1.73;;
12635;SDS011;6383;50.830;7.210;2023-09-19T14:20:28;4.10;;;1.67;;
12635;SDS011;6383;50.830;7.210;2023-09-19T14:22:58;4.25;;;1.85;;
12635;SDS011;6383;50.830;7.210;2023-09-19T14:25:28;3.07;;;1.57;;
12635;SDS011;6383;50.830;7.210;2023-09-19T14:27:57;5.32;;;1.67;;
12635;SDS011;6383;50.830;7.210;2023-09-19T14:30:26;4.13;;;1.67;;
12635;SDS011;6383;50.830;7.210;2023-09-19T14:32:54;4.93;;;1.60;;
12635;SDS011;6383;50.830;7.210;2023-09-19T14:35:26;5.47;;;2.30;;
12635;SDS011;6383;50.830;7.210;2023-09-19T14:37:55;3.45;;;1.40;;
12635;SDS011;6383;50.830;7.210;2023-09-19T14:40:23;4.63;;;1.60;;
12635;SDS011;6383;50.830;7.210;2023-09-19T14:42:54;2.97;;;1.25;;
12635;SDS011;6383;50.830;7.210;2023-09-19T14:45:23;5.45;;;1.60;;
12635;SDS011;6383;50.830;7.210;2023-09-19T14:47:53;5.20;;;1.40;;
12635;SDS011;6383;50.830;7.210;2023-09-19T14:50:23;3.90;;;1.40;;
12635;SDS011;6383;50.830;7.210;2023-09-19T14:52:55;3.88;;;1.17;;
12635;SDS011;6383;50.830;7.210;2023-09-19T14:55:23;2.55;;;1.20;;
12635;SDS011;6383;50.830;7.210;2023-09-19T14:57:54;3.35;;;1.60;;
12635;SDS011;6383;50.830;7.210;2023-09-19T15:00:24;3.25;;;1.40;;
12635;SDS011;6383;50.830;7.210;2023-09-19T15:02:53;4.97;;;1.55;;
12635;SDS011;6383;50.830;7.210;2023-09-19T15:05:23;2.78;;;1.35;;
12635;SDS011;6383;50.830;7.210;2023-09-19T15:07:52;4.03;;;1.40;;
12635;SDS011;6383;50.830;7.210;2023-09-19T15:10:22;3.00;;;1.20;;
12635;SDS011;6383;50.830;7.210;2023-09-19T15:12:51;5.63;;;1.60;;
12635;SDS011;6383;50.830;7.210;2023-09-19T15:15:20;3.53;;;1.65;;
12635;SDS011;6383;50.830;7.210;2023-09-19T15:17:47;5.05;;;1.40;;
12635;SDS011;6383;50.830;7.210;2023-09-19T15:20:16;3.67;;;1.45;;
12635;SDS011;6383;50.830;7.210;2023-09-19T15:22:44;4.03;;;1.40;;
12635;SDS011;6383;50.830;7.210;2023-09-19T15:25:12;2.10;;;1.10;;
12635;SDS011;6383;50.830;7.210;2023-09-19T15:27:42;6.78;;;1.42;;
12635;SDS011;6383;50.830;7.210;2023-09-19T15:30:15;3.10;;;1.30;;
12635;SDS011;6383;50.830;7.210;2023-09-19T15:32:49;6.97;;;1.70;;
12635;SDS011;6383;50.830;7.210;2023-09-19T15:35:22;2.75;;;1.50;;
12635;SDS011;6383;50.830;7.210;2023-09-19T15:37:54;4.45;;;1.70;;
12635;SDS011;6383;50.830;7.210;2023-09-19T15:40:25;4.10;;;1.30;;
12635;SDS011;6383;50.830;7.210;2023-09-19T15:42:55;4.60;;;1.63;;